sensor_id;sensor_type;location;lat;lon;timestamp;pressure;altitude;pressure_sealevel;temperature;humidity
58821;BME280;70670;52.476;13.334;2023-07-13T00:01:47;100698.63;;;19.41;57.15
58821;BME280;70670;52.476;13.334;2023-07-13T00:04:16;100709.03;;;19.16;58.38
58821;BME280;70670;52.476;13.334;2023-07-13T00:06:43;100709.56;;;19.20;58.28
58821;BME280;70670;52.476;13.334;2023-07-13T00:09:16;100693.28;;;19.10;58.26
58821;BME280;70670;52.476;13.334;2023-07-13T00:11:43;100694.03;;;19.12;57.88
58821;BME280;70670;52.476;13.334;2023-07-13T00:14:09;100678.56;;;19.03;58.24
58821;BME280;70670;52.476;13.334;2023-07-13T00:16:38;100661.13;;;18.96;58.31
58821;BME280;70670;52.476;13.334;2023-07-13T00:19:05;100708.03;;;19.27;58.48
58821;BME280;70670;52.476;13.334;2023-07-13T00:21:31;100710.88;;;19.35;58.15
58821;BME280;70670;52.476;13.334;2023-07-13T00:23:57;100710.44;;;19.40;57.38
58821;BME280;70670;52.476;13.334;2023-07-13T00:26:23;100711.75;;;19.46;57.00
58821;BME280;70670;52.476;13.334;2023-07-13T00:28:48;100706.31;;;19.36;56.93
58821;BME280;70670;52.476;13.334;2023-07-13T00:31:14;100719.75;;;19.47;56.36
58821;BME280;70670;52.476;13.334;2023-07-13T00:33:40;100704.59;;;19.35;56.76
58821;BME280;70670;52.476;13.334;2023-07-13T00:36:08;100722.47;;;19.47;56.24
58821;BME280;70670;52.476;13.334;2023-07-13T00:38:33;100717.88;;;19.48;56.35
58821;BME280;70670;52.476;13.334;2023-07-13T00:40:59;100718.75;;;19.29;57.33
58821;BME280;70670;52.476;13.334;2023-07-13T00:43:27;100702.59;;;19.17;57.97
58821;BME280;70670;52.476;13.334;2023-07-13T00:48:21;100709.88;;;19.17;58.98
58821;BME280;70670;52.476;13.334;2023-07-13T00:50:51;100711.44;;;19.20;58.80
58821;BME280;70670;52.476;13.334;2023-07-13T00:53:18;100679.16;;;18.97;58.97
58821;BME280;70670;52.476;13.334;2023-07-13T00:55:46;100715.44;;;19.15;58.50
58821;BME280;70670;52.476;13.334;2023-07-13T00:58:12;100713.44;;;19.17;58.56
58821;BME280;70670;52.476;13.334;2023-07-13T01:00:38;100711.59;;;19.18;58.84
58821;BME280;70670;52.476;13.334;2023-07-13T01:03:04;100721.59;;;19.17;58.79
58821;BME280;70670;52.476;13.334;2023-07-13T01:05:32;100716.22;;;18.87;59.37
58821;BME280;70670;52.476;13.334;2023-07-13T01:07:59;100716.09;;;18.58;60.43
58821;BME280;70670;52.476;13.334;2023-07-13T01:10:26;100705.47;;;18.45;60.84
58821;BME280;70670;52.476;13.334;2023-07-13T01:12:51;100720.75;;;18.46;60.90
58821;BME280;70670;52.476;13.334;2023-07-13T01:15:37;100723.78;;;18.32;61.68
58821;BME280;70670;52.476;13.334;2023-07-13T01:18:15;100720.81;;;18.35;61.64
58821;BME280;70670;52.476;13.334;2023-07-13T01:20:46;100725.06;;;18.28;62.12
58821;BME280;70670;52.476;13.334;2023-07-13T01:23:12;100670.50;;;17.69;63.04
58821;BME280;70670;52.476;13.334;2023-07-13T01:25:38;100736.13;;;17.94;63.33
58821;BME280;70670;52.476;13.334;2023-07-13T01:28:06;100737.28;;;17.80;63.99
58821;BME280;70670;52.476;13.334;2023-07-13T01:30:31;100676.03;;;17.47;64.31
58821;BME280;70670;52.476;13.334;2023-07-13T01:32:58;100726.88;;;17.64;64.71
58821;BME280;70670;52.476;13.334;2023-07-13T01:35:24;100663.25;;;17.17;65.25
58821;BME280;70670;52.476;13.334;2023-07-13T01:37:52;100652.16;;;17.20;65.05
58821;BME280;70670;52.476;13.334;2023-07-13T01:40:18;100722.25;;;17.55;65.20
58821;BME280;70670;52.476;13.334;2023-07-13T01:42:45;100710.59;;;17.43;65.38
58821;BME280;70670;52.476;13.334;2023-07-13T01:45:11;100675.41;;;17.23;65.45
58821;BME280;70670;52.476;13.334;2023-07-13T01:47:36;100652.84;;;17.01;65.66
58821;BME280;70670;52.476;13.334;2023-07-13T01:50:02;100718.59;;;17.45;65.45
58821;BME280;70670;52.476;13.334;2023-07-13T01:52:28;100715.59;;;17.27;65.85
58821;BME280;70670;52.476;13.334;2023-07-13T01:54:54;100705.41;;;17.19;66.01
58821;BME280;70670;52.476;13.334;2023-07-13T01:57:19;100725.91;;;17.22;66.24
58821;BME280;70670;52.476;13.334;2023-07-13T01:59:45;100733.44;;;17.18;65.94
58821;BME280;70670;52.476;13.334;2023-07-13T02:02:11;100714.03;;;17.02;66.32
58821;BME280;70670;52.476;13.334;2023-07-13T02:04:36;100726.06;;;17.09;66.30
58821;BME280;70670;52.476;13.334;2023-07-13T02:07:02;100725.22;;;17.09;66.44
58821;BME280;70670;52.476;13.334;2023-07-13T02:09:28;100710.22;;;17.05;66.29
58821;BME280;70670;52.476;13.334;2023-07-13T02:11:53;100727.16;;;17.18;66.02
58821;BME280;70670;52.476;13.334;2023-07-13T02:14:19;100727.44;;;17.15;66.44
58821;BME280;70670;52.476;13.334;2023-07-13T02:16:45;100709.63;;;17.01;66.77
58821;BME280;70670;52.476;13.334;2023-07-13T02:19:10;100672.81;;;16.78;66.49
58821;BME280;70670;52.476;13.334;2023-07-13T02:21:36;100723.63;;;17.06;66.89
58821;BME280;70670;52.476;13.334;2023-07-13T02:24:01;100714.00;;;17.13;66.69
58821;BME280;70670;52.476;13.334;2023-07-13T02:26:27;100695.94;;;17.14;66.54
58821;BME280;70670;52.476;13.334;2023-07-13T02:28:53;100696.06;;;17.24;66.44
58821;BME280;70670;52.476;13.334;2023-07-13T02:31:19;100693.81;;;17.29;66.40
58821;BME280;70670;52.476;13.334;2023-07-13T02:33:44;100700.22;;;17.28;66.67
58821;BME280;70670;52.476;13.334;2023-07-13T02:36:11;100669.91;;;17.02;66.85
58821;BME280;70670;52.476;13.334;2023-07-13T02:38:37;100701.56;;;17.22;66.83
58821;BME280;70670;52.476;13.334;2023-07-13T02:41:04;100706.09;;;17.33;66.64
58821;BME280;70670;52.476;13.334;2023-07-13T02:43:29;100717.88;;;17.43;66.36
58821;BME280;70670;52.476;13.334;2023-07-13T02:45:55;100715.63;;;17.48;66.29
58821;BME280;70670;52.476;13.334;2023-07-13T02:48:21;100715.03;;;17.44;66.47
58821;BME280;70670;52.476;13.334;2023-07-13T02:50:46;100708.16;;;17.40;66.69
58821;BME280;70670;52.476;13.334;2023-07-13T02:53:12;100722.63;;;17.51;66.65
58821;BME280;70670;52.476;13.334;2023-07-13T02:55:38;100711.50;;;17.33;67.12
58821;BME280;70670;52.476;13.334;2023-07-13T02:58:04;100739.78;;;17.29;67.76
58821;BME280;70670;52.476;13.334;2023-07-13T03:00:31;100738.97;;;17.17;68.01
58821;BME280;70670;52.476;13.334;2023-07-13T03:02:56;100738.59;;;17.10;68.55
58821;BME280;70670;52.476;13.334;2023-07-13T03:05:23;100734.09;;;16.88;69.41
58821;BME280;70670;52.476;13.334;2023-07-13T03:07:49;100742.84;;;16.81;69.52
58821;BME280;70670;52.476;13.334;2023-07-13T03:10:14;100742.47;;;16.74;69.90
58821;BME280;70670;52.476;13.334;2023-07-13T03:12:41;100746.28;;;16.83;69.85
58821;BME280;70670;52.476;13.334;2023-07-13T03:15:08;100698.47;;;16.50;70.23
58821;BME280;70670;52.476;13.334;2023-07-13T03:17:33;100754.63;;;16.91;70.36
58821;BME280;70670;52.476;13.334;2023-07-13T03:19:59;100747.47;;;16.90;70.47
58821;BME280;70670;52.476;13.334;2023-07-13T03:22:24;100736.19;;;16.85;70.68
58821;BME280;70670;52.476;13.334;2023-07-13T03:24:50;100753.41;;;16.95;70.84
58821;BME280;70670;52.476;13.334;2023-07-13T03:27:17;100757.19;;;16.92;71.03
58821;BME280;70670;52.476;13.334;2023-07-13T03:29:43;100756.59;;;16.89;71.04
58821;BME280;70670;52.476;13.334;2023-07-13T03:32:09;100739.00;;;16.94;70.73
58821;BME280;70670;52.476;13.334;2023-07-13T03:34:34;100761.84;;;17.13;70.28
58821;BME280;70670;52.476;13.334;2023-07-13T03:37:00;100773.75;;;17.21;70.43
58821;BME280;70670;52.476;13.334;2023-07-13T03:39:26;100758.38;;;17.22;70.46
58821;BME280;70670;52.476;13.334;2023-07-13T03:41:52;100702.50;;;17.00;70.41
58821;BME280;70670;52.476;13.334;2023-07-13T03:44:18;100773.00;;;17.31;70.99
58821;BME280;70670;52.476;13.334;2023-07-13T03:46:44;100709.16;;;16.96;70.84
58821;BME280;70670;52.476;13.334;2023-07-13T03:49:10;100774.72;;;17.32;71.36
58821;BME280;70670;52.476;13.334;2023-07-13T03:51:36;100765.41;;;17.13;72.20
58821;BME280;70670;52.476;13.334;2023-07-13T03:54:02;100784.34;;;17.02;72.87
58821;BME280;70670;52.476;13.334;2023-07-13T03:56:28;100781.38;;;17.05;72.18
58821;BME280;70670;52.476;13.334;2023-07-13T03:58:54;100711.84;;;16.62;71.66
58821;BME280;70670;52.476;13.334;2023-07-13T04:01:21;100777.22;;;17.12;71.61
58821;BME280;70670;52.476;13.334;2023-07-13T04:03:48;100777.44;;;17.20;70.85
58821;BME280;70670;52.476;13.334;2023-07-13T04:06:16;100777.22;;;17.12;70.53
58821;BME280;70670;52.476;13.334;2023-07-13T04:08:53;100782.47;;;17.14;70.13
58821;BME280;70670;52.476;13.334;2023-07-13T04:11:21;100787.88;;;17.14;69.85
58821;BME280;70670;52.476;13.334;2023-07-13T04:13:47;100782.25;;;17.06;70.29
58821;BME280;70670;52.476;13.334;2023-07-13T04:16:14;100713.31;;;16.66;69.93
58821;BME280;70670;52.476;13.334;2023-07-13T04:18:40;100772.81;;;16.89;70.52
58821;BME280;70670;52.476;13.334;2023-07-13T04:21:07;100781.78;;;17.01;70.24
58821;BME280;70670;52.476;13.334;2023-07-13T04:23:33;100775.66;;;16.87;70.74
58821;BME280;70670;52.476;13.334;2023-07-13T04:25:58;100781.41;;;16.94;70.78
58821;BME280;70670;52.476;13.334;2023-07-13T04:28:25;100780.06;;;17.00;70.21
58821;BME280;70670;52.476;13.334;2023-07-13T04:30:51;100781.63;;;17.02;69.85
58821;BME280;70670;52.476;13.334;2023-07-13T04:33:17;100785.31;;;17.12;69.72
58821;BME280;70670;52.476;13.334;2023-07-13T04:35:48;100786.53;;;17.19;69.33
58821;BME280;70670;52.476;13.334;2023-07-13T04:38:13;100757.06;;;16.94;69.20
58821;BME280;70670;52.476;13.334;2023-07-13T04:40:42;100793.41;;;17.24;69.21
58821;BME280;70670;52.476;13.334;2023-07-13T04:43:08;100733.00;;;16.91;68.90
58821;BME280;70670;52.476;13.334;2023-07-13T04:45:35;100784.31;;;17.25;69.38
58821;BME280;70670;52.476;13.334;2023-07-13T04:48:00;100791.16;;;17.40;69.01
58821;BME280;70670;52.476;13.334;2023-07-13T04:50:26;100797.81;;;17.36;68.95
58821;BME280;70670;52.476;13.334;2023-07-13T04:52:52;100790.41;;;17.38;69.34
58821;BME280;70670;52.476;13.334;2023-07-13T04:55:18;100798.03;;;17.44;69.05
58821;BME280;70670;52.476;13.334;2023-07-13T04:57:44;100786.84;;;17.37;68.94
58821;BME280;70670;52.476;13.334;2023-07-13T05:00:10;100801.34;;;17.48;69.03
58821;BME280;70670;52.476;13.334;2023-07-13T05:02:38;100791.88;;;17.42;69.19
58821;BME280;70670;52.476;13.334;2023-07-13T05:05:04;100803.53;;;17.54;69.29
58821;BME280;70670;52.476;13.334;2023-07-13T05:07:30;100692.78;;;16.98;68.77
58821;BME280;70670;52.476;13.334;2023-07-13T05:09:58;100757.00;;;17.39;68.16
58821;BME280;70670;52.476;13.334;2023-07-13T05:12:25;100768.88;;;17.48;67.89
58821;BME280;70670;52.476;13.334;2023-07-13T05:14:51;100820.56;;;17.88;67.74
58821;BME280;70670;52.476;13.334;2023-07-13T05:17:16;100810.53;;;18.00;67.95
58821;BME280;70670;52.476;13.334;2023-07-13T05:19:42;100759.19;;;17.77;67.70
58821;BME280;70670;52.476;13.334;2023-07-13T05:22:08;100820.47;;;18.10;67.58
58821;BME280;70670;52.476;13.334;2023-07-13T05:24:34;100826.16;;;18.07;67.04
58821;BME280;70670;52.476;13.334;2023-07-13T05:26:59;100832.22;;;18.00;67.14
58821;BME280;70670;52.476;13.334;2023-07-13T05:29:25;100828.91;;;17.96;67.05
58821;BME280;70670;52.476;13.334;2023-07-13T05:31:51;100821.78;;;17.95;67.04
58821;BME280;70670;52.476;13.334;2023-07-13T05:34:16;100804.28;;;17.99;66.60
58821;BME280;70670;52.476;13.334;2023-07-13T05:36:43;100823.66;;;18.15;66.53
58821;BME280;70670;52.476;13.334;2023-07-13T05:39:08;100828.25;;;18.25;66.20
58821;BME280;70670;52.476;13.334;2023-07-13T05:41:35;100832.19;;;18.32;65.84
58821;BME280;70670;52.476;13.334;2023-07-13T05:44:01;100830.91;;;18.36;65.48
58821;BME280;70670;52.476;13.334;2023-07-13T05:46:27;100830.66;;;18.39;64.49
58821;BME280;70670;52.476;13.334;2023-07-13T05:48:52;100747.25;;;18.01;64.38
58821;BME280;70670;52.476;13.334;2023-07-13T05:51:18;100840.47;;;18.61;64.41
58821;BME280;70670;52.476;13.334;2023-07-13T05:53:43;100794.44;;;18.40;64.10
58821;BME280;70670;52.476;13.334;2023-07-13T05:56:09;100830.97;;;18.66;64.01
58821;BME280;70670;52.476;13.334;2023-07-13T05:58:35;100835.16;;;18.71;64.07
58821;BME280;70670;52.476;13.334;2023-07-13T06:01:05;100839.25;;;18.86;63.85
58821;BME280;70670;52.476;13.334;2023-07-13T06:03:31;100820.69;;;18.81;63.75
58821;BME280;70670;52.476;13.334;2023-07-13T06:05:57;100829.03;;;18.99;63.28
58821;BME280;70670;52.476;13.334;2023-07-13T06:08:26;100842.81;;;19.17;62.72
58821;BME280;70670;52.476;13.334;2023-07-13T06:10:51;100825.88;;;18.94;62.58
58821;BME280;70670;52.476;13.334;2023-07-13T06:13:17;100834.34;;;19.10;62.48
58821;BME280;70670;52.476;13.334;2023-07-13T06:15:50;100815.91;;;19.04;62.72
58821;BME280;70670;52.476;13.334;2023-07-13T06:18:15;100825.09;;;19.13;62.31
58821;BME280;70670;52.476;13.334;2023-07-13T06:20:41;100819.53;;;19.14;62.43
58821;BME280;70670;52.476;13.334;2023-07-13T06:23:07;100824.25;;;19.12;62.29
58821;BME280;70670;52.476;13.334;2023-07-13T06:25:33;100769.00;;;18.83;61.90
58821;BME280;70670;52.476;13.334;2023-07-13T06:27:58;100811.38;;;19.05;62.15
58821;BME280;70670;52.476;13.334;2023-07-13T06:30:24;100808.06;;;19.01;62.12
58821;BME280;70670;52.476;13.334;2023-07-13T06:32:49;100831.41;;;19.23;61.83
58821;BME280;70670;52.476;13.334;2023-07-13T06:35:15;100836.13;;;19.31;61.19
58821;BME280;70670;52.476;13.334;2023-07-13T06:37:41;100823.00;;;19.36;61.34
58821;BME280;70670;52.476;13.334;2023-07-13T06:40:07;100825.19;;;19.42;61.34
58821;BME280;70670;52.476;13.334;2023-07-13T06:42:33;100828.63;;;19.54;60.90
58821;BME280;70670;52.476;13.334;2023-07-13T06:44:58;100824.66;;;19.68;60.69
58821;BME280;70670;52.476;13.334;2023-07-13T06:47:24;100823.00;;;19.76;60.44
58821;BME280;70670;52.476;13.334;2023-07-13T06:49:50;100831.88;;;19.88;60.28
58821;BME280;70670;52.476;13.334;2023-07-13T06:52:15;100827.00;;;20.01;59.54
58821;BME280;70670;52.476;13.334;2023-07-13T06:54:41;100823.84;;;20.06;59.56
58821;BME280;70670;52.476;13.334;2023-07-13T06:57:06;100810.69;;;20.11;59.91
58821;BME280;70670;52.476;13.334;2023-07-13T06:59:32;100799.41;;;20.16;58.81
58821;BME280;70670;52.476;13.334;2023-07-13T07:01:58;100818.09;;;20.48;57.80
58821;BME280;70670;52.476;13.334;2023-07-13T07:04:23;100822.69;;;20.47;56.85
58821;BME280;70670;52.476;13.334;2023-07-13T07:06:49;100817.53;;;20.54;56.64
58821;BME280;70670;52.476;13.334;2023-07-13T07:09:15;100819.78;;;20.68;56.10
58821;BME280;70670;52.476;13.334;2023-07-13T07:11:42;100825.91;;;20.70;56.04
58821;BME280;70670;52.476;13.334;2023-07-13T07:14:08;100828.50;;;20.72;55.64
58821;BME280;70670;52.476;13.334;2023-07-13T07:16:33;100821.78;;;20.76;55.20
58821;BME280;70670;52.476;13.334;2023-07-13T07:18:59;100831.75;;;20.85;55.54
58821;BME280;70670;52.476;13.334;2023-07-13T07:21:25;100822.47;;;20.78;54.87
58821;BME280;70670;52.476;13.334;2023-07-13T07:23:52;100836.84;;;20.98;54.81
58821;BME280;70670;52.476;13.334;2023-07-13T07:26:18;100838.28;;;21.02;54.49
58821;BME280;70670;52.476;13.334;2023-07-13T07:28:43;100835.53;;;21.02;54.28
58821;BME280;70670;52.476;13.334;2023-07-13T07:31:09;100792.97;;;20.83;53.81
58821;BME280;70670;52.476;13.334;2023-07-13T07:33:35;100816.81;;;20.99;53.26
58821;BME280;70670;52.476;13.334;2023-07-13T07:36:01;100835.22;;;21.15;53.75
58821;BME280;70670;52.476;13.334;2023-07-13T07:38:27;100823.53;;;21.04;53.56
58821;BME280;70670;52.476;13.334;2023-07-13T07:40:53;100775.94;;;20.81;53.59
58821;BME280;70670;52.476;13.334;2023-07-13T07:43:19;100829.13;;;21.03;54.00
58821;BME280;70670;52.476;13.334;2023-07-13T07:45:44;100836.66;;;21.19;54.03
58821;BME280;70670;52.476;13.334;2023-07-13T07:48:11;100845.59;;;21.29;53.90
58821;BME280;70670;52.476;13.334;2023-07-13T07:50:37;100839.81;;;21.42;53.67
58821;BME280;70670;52.476;13.334;2023-07-13T07:53:05;100839.72;;;21.61;52.97
58821;BME280;70670;52.476;13.334;2023-07-13T07:55:33;100842.22;;;21.54;52.55
58821;BME280;70670;52.476;13.334;2023-07-13T07:57:59;100853.25;;;21.53;52.48
58821;BME280;70670;52.476;13.334;2023-07-13T08:00:25;100846.91;;;21.62;52.41
58821;BME280;70670;52.476;13.334;2023-07-13T08:02:51;100839.16;;;21.57;51.56
58821;BME280;70670;52.476;13.334;2023-07-13T08:05:16;100847.88;;;21.61;51.04
58821;BME280;70670;52.476;13.334;2023-07-13T08:07:42;100858.13;;;21.49;50.84
58821;BME280;70670;52.476;13.334;2023-07-13T08:10:10;100865.16;;;21.52;50.84
58821;BME280;70670;52.476;13.334;2023-07-13T08:12:37;100859.63;;;21.34;50.62
58821;BME280;70670;52.476;13.334;2023-07-13T08:15:04;100800.81;;;20.86;50.54
58821;BME280;70670;52.476;13.334;2023-07-13T08:17:30;100857.66;;;21.26;49.67
58821;BME280;70670;52.476;13.334;2023-07-13T08:19:56;100859.66;;;21.24;50.40
58821;BME280;70670;52.476;13.334;2023-07-13T08:22:22;100849.63;;;21.25;50.48
58821;BME280;70670;52.476;13.334;2023-07-13T08:24:48;100851.97;;;21.20;50.67
58821;BME280;70670;52.476;13.334;2023-07-13T08:27:20;100858.00;;;21.13;50.96
58821;BME280;70670;52.476;13.334;2023-07-13T08:29:47;100864.22;;;21.33;50.69
58821;BME280;70670;52.476;13.334;2023-07-13T08:32:13;100862.78;;;21.39;50.66
58821;BME280;70670;52.476;13.334;2023-07-13T08:34:39;100872.22;;;21.45;50.99
58821;BME280;70670;52.476;13.334;2023-07-13T08:37:06;100815.91;;;21.08;50.39
58821;BME280;70670;52.476;13.334;2023-07-13T08:39:32;100826.63;;;21.09;50.29
58821;BME280;70670;52.476;13.334;2023-07-13T08:42:26;100876.47;;;21.20;51.13
58821;BME280;70670;52.476;13.334;2023-07-13T08:47:40;100866.03;;;21.05;50.48
58821;BME280;70670;52.476;13.334;2023-07-13T08:50:14;100852.31;;;20.97;50.15
58821;BME280;70670;52.476;13.334;2023-07-13T08:52:41;100869.47;;;21.07;49.96
58821;BME280;70670;52.476;13.334;2023-07-13T08:55:21;100873.19;;;21.06;49.66
58821;BME280;70670;52.476;13.334;2023-07-13T08:57:59;100864.44;;;21.12;49.67
58821;BME280;70670;52.476;13.334;2023-07-13T09:00:34;100858.09;;;21.22;49.72
58821;BME280;70670;52.476;13.334;2023-07-13T09:03:02;100871.19;;;21.46;49.67
58821;BME280;70670;52.476;13.334;2023-07-13T09:05:36;100878.69;;;21.61;48.38
58821;BME280;70670;52.476;13.334;2023-07-13T09:08:38;100868.31;;;21.75;48.04
58821;BME280;70670;52.476;13.334;2023-07-13T09:11:23;100857.03;;;21.88;48.33
58821;BME280;70670;52.476;13.334;2023-07-13T09:16:24;100872.09;;;21.64;47.30
58821;BME280;70670;52.476;13.334;2023-07-13T09:18:54;100867.91;;;21.70;46.70
58821;BME280;70670;52.476;13.334;2023-07-13T09:21:28;100774.03;;;20.91;48.27
58821;BME280;70670;52.476;13.334;2023-07-13T09:23:59;100866.41;;;21.57;47.63
58821;BME280;70670;52.476;13.334;2023-07-13T09:26:28;100866.75;;;21.45;47.19
58821;BME280;70670;52.476;13.334;2023-07-13T09:29:10;100865.59;;;21.75;47.75
58821;BME280;70670;52.476;13.334;2023-07-13T09:31:45;100851.88;;;21.84;47.50
58821;BME280;70670;52.476;13.334;2023-07-13T09:34:14;100863.19;;;21.90;48.89
58821;BME280;70670;52.476;13.334;2023-07-13T09:36:40;100856.88;;;22.07;49.04
58821;BME280;70670;52.476;13.334;2023-07-13T09:39:28;100854.00;;;22.44;44.18
58821;BME280;70670;52.476;13.334;2023-07-13T09:42:00;100856.03;;;22.42;43.82
58821;BME280;70670;52.476;13.334;2023-07-13T09:44:36;100808.84;;;22.06;41.85
58821;BME280;70670;52.476;13.334;2023-07-13T09:47:02;100860.94;;;22.39;42.04
58821;BME280;70670;52.476;13.334;2023-07-13T09:49:33;100817.19;;;22.22;42.37
58821;BME280;70670;52.476;13.334;2023-07-13T09:52:03;100869.00;;;22.66;41.16
58821;BME280;70670;52.476;13.334;2023-07-13T09:54:34;100861.38;;;22.52;41.85
58821;BME280;70670;52.476;13.334;2023-07-13T09:57:02;100856.66;;;22.36;42.47
58821;BME280;70670;52.476;13.334;2023-07-13T09:59:33;100862.66;;;22.40;42.75
58821;BME280;70670;52.476;13.334;2023-07-13T10:02:00;100816.78;;;21.99;43.52
58821;BME280;70670;52.476;13.334;2023-07-13T10:04:30;100889.38;;;22.36;43.84
58821;BME280;70670;52.476;13.334;2023-07-13T10:07:12;100873.66;;;22.30;43.75
58821;BME280;70670;52.476;13.334;2023-07-13T10:09:39;100849.94;;;22.13;43.97
58821;BME280;70670;52.476;13.334;2023-07-13T10:12:13;100880.97;;;22.47;43.70
58821;BME280;70670;52.476;13.334;2023-07-13T10:14:39;100845.31;;;22.23;43.72
58821;BME280;70670;52.476;13.334;2023-07-13T10:17:10;100873.13;;;22.26;42.79
58821;BME280;70670;52.476;13.334;2023-07-13T10:19:38;100860.56;;;22.33;43.38
58821;BME280;70670;52.476;13.334;2023-07-13T10:22:27;100869.38;;;22.45;42.73
58821;BME280;70670;52.476;13.334;2023-07-13T10:24:58;100865.25;;;22.41;42.11
58821;BME280;70670;52.476;13.334;2023-07-13T10:27:34;100882.13;;;22.45;42.01
58821;BME280;70670;52.476;13.334;2023-07-13T10:30:05;100815.81;;;22.18;42.43
58821;BME280;70670;52.476;13.334;2023-07-13T10:32:35;100805.50;;;22.30;41.75
58821;BME280;70670;52.476;13.334;2023-07-13T10:35:01;100873.28;;;22.69;41.88
58821;BME280;70670;52.476;13.334;2023-07-13T10:37:43;100887.63;;;22.71;42.24
58821;BME280;70670;52.476;13.334;2023-07-13T10:40:18;100876.28;;;22.57;42.07
58821;BME280;70670;52.476;13.334;2023-07-13T10:42:46;100878.22;;;22.47;42.37
58821;BME280;70670;52.476;13.334;2023-07-13T10:45:16;100882.72;;;22.74;40.61
58821;BME280;70670;52.476;13.334;2023-07-13T10:47:43;100867.53;;;22.98;40.93
58821;BME280;70670;52.476;13.334;2023-07-13T10:50:17;100829.56;;;23.04;39.92
58821;BME280;70670;52.476;13.334;2023-07-13T10:52:47;100862.34;;;23.13;39.30
58821;BME280;70670;52.476;13.334;2023-07-13T10:58:23;100882.41;;;23.03;39.78
58821;BME280;70670;52.476;13.334;2023-07-13T11:01:02;100870.91;;;23.18;39.62
58821;BME280;70670;52.476;13.334;2023-07-13T11:03:31;100857.31;;;23.34;39.44
58821;BME280;70670;52.476;13.334;2023-07-13T11:06:29;100862.63;;;23.44;38.36
58821;BME280;70670;52.476;13.334;2023-07-13T11:08:57;100862.28;;;23.39;38.60
58821;BME280;70670;52.476;13.334;2023-07-13T11:21:21;100838.03;;;23.78;38.56
58821;BME280;70670;52.476;13.334;2023-07-13T11:23:54;100799.13;;;23.42;37.54
58821;BME280;70670;52.476;13.334;2023-07-13T11:31:42;100860.13;;;24.17;37.43
58821;BME280;70670;52.476;13.334;2023-07-13T11:34:15;100859.41;;;24.07;38.36
58821;BME280;70670;52.476;13.334;2023-07-13T11:36:50;100847.41;;;23.84;39.03
58821;BME280;70670;52.476;13.334;2023-07-13T11:39:19;100847.91;;;23.71;39.49
58821;BME280;70670;52.476;13.334;2023-07-13T11:41:56;100857.91;;;23.54;40.61
58821;BME280;70670;52.476;13.334;2023-07-13T11:44:24;100848.56;;;23.65;39.16
58821;BME280;70670;52.476;13.334;2023-07-13T11:46:52;100843.06;;;23.56;38.76
58821;BME280;70670;52.476;13.334;2023-07-13T11:49:20;100797.88;;;23.28;38.70
58821;BME280;70670;52.476;13.334;2023-07-13T11:51:47;100862.50;;;23.96;37.63
58821;BME280;70670;52.476;13.334;2023-07-13T11:54:41;100846.56;;;23.83;37.97
58821;BME280;70670;52.476;13.334;2023-07-13T11:57:27;100846.72;;;23.73;36.86
58821;BME280;70670;52.476;13.334;2023-07-13T11:59:54;100849.97;;;23.69;37.88
58821;BME280;70670;52.476;13.334;2023-07-13T12:02:28;100797.16;;;23.60;37.66
58821;BME280;70670;52.476;13.334;2023-07-13T12:04:55;100840.47;;;24.14;37.75
58821;BME280;70670;52.476;13.334;2023-07-13T12:07:22;100839.59;;;24.05;37.10
58821;BME280;70670;52.476;13.334;2023-07-13T12:09:48;100791.38;;;23.79;37.11
58821;BME280;70670;52.476;13.334;2023-07-13T12:12:21;100780.31;;;23.97;37.26
58821;BME280;70670;52.476;13.334;2023-07-13T12:14:51;100787.47;;;24.31;37.01
58821;BME280;70670;52.476;13.334;2023-07-13T12:17:22;100839.94;;;24.84;36.79
58821;BME280;70670;52.476;13.334;2023-07-13T12:19:49;100851.91;;;24.74;35.73
58821;BME280;70670;52.476;13.334;2023-07-13T12:22:17;100837.72;;;24.14;36.03
58821;BME280;70670;52.476;13.334;2023-07-13T12:24:44;100796.53;;;23.99;36.53
58821;BME280;70670;52.476;13.334;2023-07-13T12:27:25;100847.63;;;24.23;36.37
58821;BME280;70670;52.476;13.334;2023-07-13T12:29:59;100833.97;;;24.31;36.38
58821;BME280;70670;52.476;13.334;2023-07-13T12:32:26;100827.97;;;24.11;36.89
58821;BME280;70670;52.476;13.334;2023-07-13T12:35:14;100837.56;;;24.23;37.69
58821;BME280;70670;52.476;13.334;2023-07-13T12:37:43;100809.69;;;23.95;37.29
58821;BME280;70670;52.476;13.334;2023-07-13T12:40:15;100843.22;;;24.46;36.52
58821;BME280;70670;52.476;13.334;2023-07-13T12:42:41;100850.38;;;24.80;35.31
58821;BME280;70670;52.476;13.334;2023-07-13T12:45:27;100842.69;;;24.26;36.06
58821;BME280;70670;52.476;13.334;2023-07-13T12:48:06;100855.00;;;24.30;36.27
58821;BME280;70670;52.476;13.334;2023-07-13T12:50:40;100842.19;;;24.64;35.72
58821;BME280;70670;52.476;13.334;2023-07-13T12:53:14;100842.28;;;25.03;34.92
58821;BME280;70670;52.476;13.334;2023-07-13T12:55:48;100847.56;;;25.13;34.12
58821;BME280;70670;52.476;13.334;2023-07-13T12:58:26;100845.88;;;25.03;34.27
58821;BME280;70670;52.476;13.334;2023-07-13T13:00:54;100836.84;;;24.95;34.95
58821;BME280;70670;52.476;13.334;2023-07-13T13:03:40;100845.88;;;25.03;34.68
58821;BME280;70670;52.476;13.334;2023-07-13T13:08:49;100857.25;;;24.68;35.76
58821;BME280;70670;52.476;13.334;2023-07-13T13:11:16;100861.19;;;24.57;35.76
58821;BME280;70670;52.476;13.334;2023-07-13T13:13:43;100841.84;;;24.59;35.89
58821;BME280;70670;52.476;13.334;2023-07-13T13:16:16;100788.84;;;24.19;36.35